Mechanicsburg, IL (62545)

12:58 PM CST on January 27, 2015 (GMT -0600)
South Weather Station | Change Station
CLOSE
Current Station
Personal Weather Station
Location: Mechanicsburg, IL
Elevation: 587 ft
Nearby Weather Stations

Elev 587 ft 39.80 °N, 89.40 °W | Updated 3 seconds ago

Overcast
Overcast
32.6 °F
Feels Like 26 °F
N
8.0
Wind Variable Wind from NNE
Gusts 12.0 mph

Today
High -- | Low -- °F
--% Chance of Precip.
Yesterday
High -- | Low -- °F
Precip. -- in
7:10 AM 5:11 PM
First Quarter, 56% visible
Pressure 30.19 in
Visibility 9.0 miles
Clouds Overcast 1300 ft
Windchill 26 °F
Dew Point 29 °F
Humidity 85%
Rainfall 0.00 in
Snow Depth Not available.
UV 1 out of 12
Pollen .10 out of 12
Air Quality Not available.
Flu Activity Not available.
METAR KSPI 271852Z 02005KT 9SM OVC013 01/M03 A3017 RMK AO2 SLP223 T00111028

More Conditions Fewer Conditions

Pressure 30.19 in
Visibility 9.0 miles
Clouds Overcast 1300 ft
Windchill 26 °F
Dew Point 29 °F
Humidity 85%
Rainfall 0.00 in
Snow Depth Not available.
UV 1 out of 12
Pollen .10 out of 12
Air Quality Not available.
Flu Activity Not available.
METAR KSPI 271852Z 02005KT 9SM OVC013 01/M03 A3017 RMK AO2 SLP223 T00111028

More Conditions Fewer Conditions

10-Day Weather Forecast

Almanac

Astronomy

Jan. 27, 2015 Rise Set
Actual Time
Civil Twilight
Nautical Twilight
Astronomical Twilight
Moon
Length of Visible Light
Length of Day
Tomorrow will be .
, % of the Moon is Illuminated

Today's Extremes

State Highs State Lows

Community

WunderPhotos

Upload Photos

1,790,776 photos uploaded!

WunderBlogs® & News

Nearby

Air Quality

  Air Quality AQ Index Pollutant
Not available.

Snow Depth

Station Depth Elevation

Earthquake Activity

City Distance Mag. Time & Date
Minimum magnitude displayed is 2.5.

Coastal Water Temperatures

Place Temperature

Nearby Weather Stations